createdAt,value
2018-10-09T00:01:24.157Z,72.29
2018-10-09T00:03:52.221Z,72.41
2018-10-09T00:06:20.261Z,71.37
2018-10-09T00:08:48.389Z,71.25
2018-10-09T00:11:16.403Z,71.71
2018-10-09T00:13:44.429Z,71.96
2018-10-09T00:16:12.443Z,72.10
2018-10-09T00:18:40.620Z,71.52
2018-10-09T00:21:08.851Z,72.02
2018-10-09T00:23:37.033Z,71.78
2018-10-09T00:26:05.322Z,71.64
2018-10-09T00:28:33.362Z,71.97
2018-10-09T00:31:01.405Z,71.71
2018-10-09T00:33:29.521Z,70.98
2018-10-09T00:35:57.743Z,71.66
2018-10-09T00:38:26.009Z,72.14
2018-10-09T00:40:54.161Z,72.20
2018-10-09T00:43:22.437Z,71.22
2018-10-09T00:45:50.536Z,71.82
2018-10-09T00:48:18.586Z,71.89
2018-10-09T00:50:46.905Z,71.28
2018-10-09T00:53:15.045Z,71.32
2018-10-09T00:55:43.248Z,72.13
2018-10-09T00:58:11.460Z,71.57
2018-10-09T01:00:39.720Z,72.56
2018-10-09T01:03:07.772Z,71.94
2018-10-09T01:05:35.899Z,72.07
2018-10-09T01:08:04.785Z,73.05
2018-10-09T01:10:32.956Z,72.79
2018-10-09T01:13:00.984Z,72.62
2018-10-09T01:15:29.048Z,73.23
2018-10-09T01:17:57.131Z,72.34
2018-10-09T01:20:31.247Z,72.59
2018-10-09T01:23:00.229Z,72.84
2018-10-09T01:25:28.400Z,72.62
2018-10-09T01:27:56.572Z,73.46
2018-10-09T01:30:24.617Z,73.28
2018-10-09T01:32:52.693Z,73.66
2018-10-09T01:35:20.734Z,73.74
2018-10-09T01:37:48.821Z,73.81
2018-10-09T01:40:16.865Z,72.75
2018-10-09T01:42:45.017Z,73.46
2018-10-09T01:45:13.049Z,73.02
2018-10-09T01:47:41.084Z,72.77
2018-10-09T01:50:09.193Z,73.09
2018-10-09T01:52:37.237Z,72.75
2018-10-09T01:55:05.989Z,73.43
2018-10-09T01:57:34.041Z,73.80
2018-10-09T02:00:02.131Z,73.42
2018-10-09T02:02:30.181Z,73.07
2018-10-09T02:04:58.216Z,73.09
2018-10-09T02:07:26.277Z,73.79
2018-10-09T02:09:54.481Z,73.22
2018-10-09T02:12:22.710Z,74.36
2018-10-09T02:14:50.744Z,75.04
2018-10-09T02:17:18.889Z,74.76
2018-10-09T02:19:46.961Z,75.62
2018-10-09T02:22:15.072Z,74.92
2018-10-09T02:24:43.146Z,75.24
2018-10-09T02:27:11.268Z,74.90
2018-10-09T02:29:39.306Z,75.58
2018-10-09T02:32:07.549Z,75.00
2018-10-09T02:34:35.609Z,74.47
2018-10-09T02:37:03.766Z,74.31
2018-10-09T02:39:31.861Z,73.88
2018-10-09T02:42:00.255Z,73.11
2018-10-09T02:44:28.341Z,73.64
2018-10-09T02:46:56.384Z,73.41
2018-10-09T02:49:24.396Z,73.52
2018-10-09T02:51:52.510Z,73.74
2018-10-09T02:55:24.097Z,74.02
2018-10-09T02:57:52.105Z,74.35
2018-10-09T03:00:20.279Z,73.80
2018-10-09T03:02:48.315Z,74.43
2018-10-09T03:05:16.327Z,75.84
2018-10-09T03:07:44.402Z,75.79
2018-10-09T03:10:12.474Z,75.86
2018-10-09T03:12:40.534Z,75.83
2018-10-09T03:15:08.581Z,76.38
2018-10-09T03:17:36.708Z,75.51
2018-10-09T03:20:04.805Z,76.36
2018-10-09T03:22:32.849Z,76.08
2018-10-09T03:25:00.925Z,76.67
2018-10-09T03:27:28.997Z,77.45
2018-10-09T03:29:57.042Z,77.18
2018-10-09T03:32:25.061Z,76.82
2018-10-09T03:34:53.234Z,76.47
2018-10-09T03:37:21.261Z,76.13
2018-10-09T03:39:49.269Z,76.24
2018-10-09T03:42:17.415Z,75.16
2018-10-09T03:44:45.496Z,74.68
2018-10-09T03:47:13.549Z,74.66
2018-10-09T03:49:41.609Z,75.09
2018-10-09T03:54:44.344Z,74.95
2018-10-09T03:57:12.376Z,76.34
2018-10-09T03:59:40.573Z,75.66
2018-10-09T04:02:08.597Z,75.83
2018-10-09T04:04:36.625Z,76.87
2018-10-09T04:07:04.837Z,76.79
2018-10-09T04:09:32.884Z,75.73
2018-10-09T04:12:00.911Z,75.75
2018-10-09T04:14:28.979Z,76.12
2018-10-09T04:16:57.102Z,75.95
2018-10-09T04:19:25.224Z,75.53
2018-10-09T04:21:53.214Z,75.15
2018-10-09T04:24:21.523Z,74.86
2018-10-09T04:26:49.541Z,74.88
2018-10-09T04:29:17.667Z,74.42
2018-10-09T04:31:45.740Z,74.50
2018-10-09T04:34:13.761Z,73.69
2018-10-09T04:36:41.933Z,74.03
2018-10-09T04:39:10.433Z,74.09
2018-10-09T04:41:38.593Z,73.16
2018-10-09T04:44:06.845Z,73.93
2018-10-09T04:46:34.946Z,74.62
2018-10-09T04:49:02.990Z,75.66
2018-10-09T04:51:31.503Z,75.06
2018-10-09T04:53:59.603Z,74.42
2018-10-09T04:56:27.741Z,74.84
2018-10-09T04:58:55.757Z,74.58
2018-10-09T05:01:23.876Z,73.85
2018-10-09T05:03:53.009Z,74.00
2018-10-09T05:06:21.201Z,74.47
2018-10-09T05:08:49.210Z,75.04
2018-10-09T05:11:17.241Z,74.77
2018-10-09T05:13:45.286Z,75.33
2018-10-09T05:16:13.469Z,75.53
2018-10-09T05:18:41.518Z,75.94
2018-10-09T05:21:09.536Z,75.36
2018-10-09T05:23:37.693Z,75.36
2018-10-09T05:26:05.768Z,74.06
2018-10-09T05:28:33.781Z,74.71
2018-10-09T05:31:02.347Z,74.21
2018-10-09T05:33:30.408Z,73.85
2018-10-09T05:35:58.418Z,73.56
2018-10-09T05:38:26.622Z,73.79
2018-10-09T05:40:54.694Z,74.22
2018-10-09T05:43:22.785Z,75.65
2018-10-09T05:45:50.866Z,76.22
2018-10-09T05:48:19.295Z,77.13
2018-10-09T05:50:47.333Z,76.68
2018-10-09T05:53:15.345Z,75.85
2018-10-09T05:55:43.366Z,76.15
2018-10-09T05:58:11.473Z,74.95
2018-10-09T06:00:39.479Z,75.10
2018-10-09T06:03:07.663Z,74.65
2018-10-09T06:05:35.688Z,74.83
2018-10-09T06:08:03.886Z,74.88
2018-10-09T06:10:32.161Z,74.73
2018-10-09T06:13:00.173Z,74.69
2018-10-09T06:15:28.432Z,73.65
2018-10-09T06:17:56.465Z,73.59
2018-10-09T06:20:24.539Z,74.05
2018-10-09T06:22:52.591Z,73.49
2018-10-09T06:25:20.638Z,73.08
2018-10-09T06:27:48.679Z,72.64
2018-10-09T06:30:16.969Z,72.53
2018-10-09T06:32:45.158Z,73.04
2018-10-09T06:35:13.285Z,72.90
2018-10-09T06:37:41.341Z,72.64
2018-10-09T06:40:09.522Z,72.90
2018-10-09T06:42:37.571Z,70.05
2018-10-09T06:45:05.645Z,66.66
2018-10-09T06:47:33.730Z,63.58
2018-10-09T06:50:01.950Z,60.59
2018-10-09T06:52:30.033Z,57.95
2018-10-09T06:54:58.122Z,56.07
2018-10-09T06:57:26.320Z,55.94
2018-10-09T06:59:54.585Z,56.47
2018-10-09T07:02:22.806Z,58.36
2018-10-09T07:04:50.902Z,58.10
2018-10-09T07:07:19.142Z,56.74
2018-10-09T07:09:47.281Z,54.56
2018-10-09T07:12:15.822Z,50.81
2018-10-09T07:14:44.157Z,47.56
2018-10-09T07:17:12.372Z,46.34
2018-10-09T07:22:18.890Z,43.13
2018-10-09T07:24:48.033Z,43.26
2018-10-09T07:27:16.091Z,41.82
2018-10-09T07:29:44.153Z,40.78
2018-10-09T07:32:12.406Z,39.91
2018-10-09T07:34:40.501Z,41.21
2018-10-09T07:37:08.545Z,43.21
2018-10-09T07:39:37.634Z,45.73
2018-10-09T07:42:05.849Z,45.29
2018-10-09T07:44:33.894Z,47.13
2018-10-09T07:47:02.016Z,46.15
2018-10-09T07:49:30.144Z,43.40
2018-10-09T07:51:58.243Z,43.07
2018-10-09T07:54:26.283Z,43.15
2018-10-09T07:56:54.327Z,43.43
2018-10-09T07:59:22.646Z,42.31
2018-10-09T08:01:51.737Z,42.72
2018-10-09T08:04:19.962Z,39.22
2018-10-09T08:06:48.018Z,39.12
2018-10-09T08:09:16.038Z,35.44
2018-10-09T08:11:44.526Z,35.22
2018-10-09T08:14:12.622Z,33.21
2018-10-09T08:16:40.683Z,31.19
2018-10-09T08:19:08.787Z,30.13
2018-10-09T08:21:36.875Z,30.37
2018-10-09T08:24:04.918Z,27.94
2018-10-09T08:26:32.989Z,27.17
2018-10-09T08:29:01.039Z,26.36
2018-10-09T08:31:29.168Z,25.67
2018-10-09T08:33:57.186Z,25.29
2018-10-09T08:36:25.239Z,25.33
2018-10-09T08:38:53.270Z,25.84
2018-10-09T08:41:21.352Z,26.29
2018-10-09T08:43:49.398Z,25.50
2018-10-09T08:46:17.670Z,26.33
2018-10-09T08:48:45.717Z,26.34
2018-10-09T08:51:13.828Z,26.52
2018-10-09T08:53:42.043Z,26.14
2018-10-09T08:56:10.298Z,27.13
2018-10-09T08:58:38.375Z,25.67
2018-10-09T09:01:06.466Z,26.55
2018-10-09T09:03:34.770Z,26.97
2018-10-09T09:06:02.791Z,26.74
2018-10-09T09:08:30.823Z,26.72
2018-10-09T09:10:58.965Z,27.44
2018-10-09T09:13:27.255Z,27.94
2018-10-09T09:15:55.302Z,26.46
2018-10-09T09:18:23.566Z,26.86
2018-10-09T09:20:51.715Z,26.59
2018-10-09T09:23:19.816Z,25.33
2018-10-09T09:25:47.920Z,26.27
2018-10-09T09:28:15.943Z,25.65
2018-10-09T09:30:44.118Z,25.94
2018-10-09T09:33:12.345Z,26.86
2018-10-09T09:35:40.277Z,26.97
2018-10-09T09:38:08.651Z,25.76
2018-10-09T09:40:36.734Z,27.08
2018-10-09T09:43:04.909Z,27.25
2018-10-09T09:45:32.984Z,27.80
2018-10-09T09:48:01.043Z,30.07
2018-10-09T09:50:29.176Z,31.18
2018-10-09T09:52:57.205Z,30.80
2018-10-09T09:55:25.256Z,30.30
2018-10-09T09:57:53.506Z,30.93
2018-10-09T10:00:26.794Z,31.21
2018-10-09T10:02:54.836Z,31.25
2018-10-09T10:05:22.977Z,30.82
2018-10-09T10:07:51.004Z,32.45
2018-10-09T10:10:19.065Z,32.50
2018-10-09T10:12:47.090Z,33.96
2018-10-09T10:15:15.361Z,35.89
2018-10-09T10:17:43.614Z,37.08
2018-10-09T10:20:12.022Z,37.43
2018-10-09T10:22:40.096Z,35.98
2018-10-09T10:25:09.450Z,36.71
2018-10-09T10:27:37.535Z,36.86
2018-10-09T10:30:05.926Z,38.67
2018-10-09T10:32:33.993Z,38.33
2018-10-09T10:35:02.183Z,38.50
2018-10-09T10:37:30.258Z,37.51
2018-10-09T10:39:58.431Z,38.63
2018-10-09T10:42:26.486Z,38.99
2018-10-09T10:44:54.514Z,39.18
2018-10-09T10:47:22.582Z,37.55
2018-10-09T10:49:50.642Z,39.18
2018-10-09T10:52:18.718Z,42.49
2018-10-09T10:54:46.804Z,40.13
2018-10-09T10:57:14.842Z,39.83
2018-10-09T10:59:42.870Z,38.51
2018-10-09T11:02:10.922Z,40.10
2018-10-09T11:04:38.975Z,38.28
2018-10-09T11:07:07.150Z,40.09
2018-10-09T11:09:35.205Z,37.06
2018-10-09T11:12:03.262Z,39.12
2018-10-09T11:14:32.333Z,39.43
2018-10-09T11:17:00.395Z,39.81
2018-10-09T11:19:28.509Z,39.82
2018-10-09T11:21:56.667Z,40.94
2018-10-09T11:24:24.723Z,40.19
2018-10-09T11:26:53.014Z,41.15
2018-10-09T11:29:21.182Z,37.61
2018-10-09T11:31:49.222Z,39.39
2018-10-09T11:34:17.292Z,39.19
2018-10-09T11:39:12.545Z,40.83
2018-10-09T11:41:40.624Z,37.61
2018-10-09T11:44:09.012Z,39.22
2018-10-09T11:46:37.502Z,37.84
2018-10-09T11:49:06.061Z,36.81
2018-10-09T11:51:34.146Z,38.55
2018-10-09T11:54:02.273Z,37.70
2018-10-09T11:56:30.558Z,38.70
2018-10-09T11:58:58.703Z,38.81
2018-10-09T12:01:26.804Z,38.50
2018-10-09T12:03:55.049Z,35.79
2018-10-09T12:06:23.669Z,37.37
2018-10-09T12:08:51.889Z,37.82
2018-10-09T12:11:19.927Z,37.90
2018-10-09T12:13:48.317Z,38.40
2018-10-09T12:16:16.602Z,38.23
2018-10-09T12:18:44.690Z,36.13
2018-10-09T12:21:12.904Z,37.02
2018-10-09T12:23:41.002Z,35.76
2018-10-09T12:26:09.201Z,34.16
2018-10-09T12:28:37.595Z,34.36
2018-10-09T12:31:05.641Z,37.08
2018-10-09T12:33:33.819Z,35.20
2018-10-09T12:36:02.041Z,35.49
2018-10-09T12:38:30.324Z,38.26
2018-10-09T12:40:58.481Z,35.70
2018-10-09T12:43:26.684Z,34.91
2018-10-09T12:45:55.082Z,36.23
2018-10-09T12:48:23.244Z,35.81
2018-10-09T12:50:51.318Z,35.86
2018-10-09T12:55:45.159Z,38.25
2018-10-09T12:58:13.225Z,37.85
2018-10-09T13:00:41.378Z,38.68
2018-10-09T13:03:09.458Z,36.36
2018-10-09T13:05:37.481Z,35.64
2018-10-09T13:08:05.730Z,37.56
2018-10-09T13:10:33.821Z,38.48
2018-10-09T13:13:01.908Z,39.23
2018-10-09T13:15:29.970Z,39.57
2018-10-09T13:17:58.043Z,36.94
2018-10-09T13:20:26.145Z,38.51
2018-10-09T13:22:54.303Z,38.21
2018-10-09T13:25:22.454Z,37.63
2018-10-09T13:27:50.598Z,38.33
2018-10-09T13:30:18.675Z,37.53
2018-10-09T13:32:46.774Z,38.33
2018-10-09T13:35:14.814Z,39.26
2018-10-09T13:37:43.018Z,37.19
2018-10-09T13:40:11.069Z,37.77
2018-10-09T13:42:39.165Z,39.75
2018-10-09T13:45:07.418Z,38.20
2018-10-09T13:47:35.551Z,39.38
2018-10-09T13:50:03.559Z,39.47
2018-10-09T13:52:31.639Z,39.91
2018-10-09T13:54:59.751Z,41.24
2018-10-09T13:57:27.826Z,40.11
2018-10-09T13:59:55.871Z,39.99
2018-10-09T14:02:23.891Z,39.35
2018-10-09T14:04:52.067Z,39.69
2018-10-09T14:07:20.098Z,39.71
2018-10-09T14:09:48.169Z,41.13
2018-10-09T14:12:16.254Z,41.06
2018-10-09T14:14:44.302Z,42.03
2018-10-09T14:17:12.379Z,39.89
2018-10-09T14:19:40.469Z,41.68
2018-10-09T14:22:08.554Z,42.38
2018-10-09T14:24:36.614Z,40.93
2018-10-09T14:27:04.695Z,41.75
2018-10-09T14:29:33.274Z,42.08
2018-10-09T14:32:01.306Z,41.77
2018-10-09T14:34:29.360Z,42.07
2018-10-09T14:36:57.436Z,40.95
2018-10-09T14:39:25.724Z,43.01
2018-10-09T14:41:53.787Z,39.84
2018-10-09T14:44:21.983Z,40.69
2018-10-09T14:46:50.144Z,43.94
2018-10-09T14:49:18.122Z,41.87
2018-10-09T14:51:46.337Z,42.37
2018-10-09T14:54:14.431Z,41.39
2018-10-09T14:56:42.510Z,39.81
2018-10-09T14:59:10.540Z,40.73
2018-10-09T15:01:38.626Z,42.35
2018-10-09T15:04:06.839Z,41.56
2018-10-09T15:06:34.942Z,42.67
2018-10-09T15:09:03.109Z,42.11
2018-10-09T15:11:31.158Z,42.02
2018-10-09T15:13:59.213Z,42.79
2018-10-09T15:16:27.262Z,42.71
2018-10-09T15:18:55.334Z,43.56
2018-10-09T15:21:23.379Z,43.11
2018-10-09T15:23:51.438Z,42.87
2018-10-09T15:26:20.573Z,42.85
2018-10-09T15:28:48.660Z,41.74
2018-10-09T15:31:16.726Z,43.07
2018-10-09T15:33:44.778Z,42.87
2018-10-09T15:36:12.842Z,43.19
2018-10-09T15:38:40.897Z,43.12
2018-10-09T15:41:08.977Z,43.47
2018-10-09T15:43:37.001Z,43.29
2018-10-09T15:46:05.440Z,43.34
2018-10-09T15:48:33.510Z,43.46
2018-10-09T15:51:01.549Z,44.08
2018-10-09T15:53:29.598Z,45.17
2018-10-09T15:55:57.641Z,43.95
2018-10-09T15:58:25.802Z,44.26
2018-10-09T16:00:54.889Z,44.78
2018-10-09T16:03:23.030Z,43.71
2018-10-09T16:05:51.069Z,45.04
2018-10-09T16:08:19.818Z,44.78
2018-10-09T16:10:47.886Z,45.79
2018-10-09T16:13:15.966Z,45.19
2018-10-09T16:15:44.048Z,46.28
2018-10-09T16:18:12.098Z,47.54
2018-10-09T16:20:40.193Z,46.46
2018-10-09T16:23:08.217Z,46.88
2018-10-09T16:25:36.271Z,46.94
2018-10-09T16:28:04.518Z,48.29
2018-10-09T16:30:32.678Z,47.93
2018-10-09T16:33:00.788Z,49.86
2018-10-09T16:35:29.075Z,48.61
2018-10-09T16:37:57.216Z,48.43
2018-10-09T16:40:25.343Z,48.95
2018-10-09T16:42:53.422Z,49.33
2018-10-09T16:45:21.729Z,50.01
2018-10-09T16:47:49.933Z,49.93
2018-10-09T16:50:17.973Z,50.54
2018-10-09T16:52:46.153Z,50.68
2018-10-09T16:55:14.206Z,50.86
2018-10-09T16:57:42.253Z,51.28
2018-10-09T17:00:10.384Z,53.48
2018-10-09T17:02:38.453Z,52.71
2018-10-09T17:05:06.627Z,51.85
2018-10-09T17:07:34.910Z,52.95
2018-10-09T17:10:02.934Z,53.14
2018-10-09T17:12:31.237Z,52.64
2018-10-09T17:14:59.438Z,53.52
2018-10-09T17:17:27.507Z,53.28
2018-10-09T17:19:56.008Z,53.45
2018-10-09T17:22:24.147Z,53.90
2018-10-09T17:24:52.346Z,54.74
2018-10-09T17:27:20.439Z,54.29
2018-10-09T17:29:48.532Z,55.33
2018-10-09T17:32:16.714Z,55.99
2018-10-09T17:34:44.859Z,55.26
2018-10-09T17:37:13.057Z,56.25
2018-10-09T17:39:41.292Z,56.48
2018-10-09T17:42:09.498Z,55.91
2018-10-09T17:44:37.561Z,55.84
2018-10-09T17:47:08.766Z,56.59
2018-10-09T17:49:38.481Z,58.03
2018-10-09T17:52:07.011Z,57.54
2018-10-09T17:54:35.110Z,57.93
2018-10-09T17:57:03.261Z,59.73
2018-10-09T17:59:31.550Z,59.51
2018-10-09T18:01:59.620Z,60.60
2018-10-09T18:04:27.861Z,61.36
2018-10-09T18:06:56.130Z,61.56
2018-10-09T18:09:24.158Z,62.29
2018-10-09T18:11:52.230Z,62.12
2018-10-09T18:14:20.389Z,62.02
2018-10-09T18:16:48.457Z,62.02
2018-10-09T18:19:16.536Z,62.08
2018-10-09T18:21:44.538Z,62.90
2018-10-09T18:24:12.671Z,63.15
2018-10-09T18:26:40.704Z,63.16
2018-10-09T18:29:08.817Z,63.22
2018-10-09T18:31:36.834Z,63.20
2018-10-09T18:34:05.041Z,63.29
2018-10-09T18:36:33.102Z,63.23
2018-10-09T18:39:01.351Z,63.79
2018-10-09T18:41:29.684Z,63.77
2018-10-09T18:43:57.506Z,64.11
2018-10-09T18:46:25.634Z,64.24
2018-10-09T18:48:53.845Z,65.02
2018-10-09T18:51:21.900Z,64.36
2018-10-09T18:53:49.926Z,64.65
2018-10-09T18:56:17.948Z,66.23
2018-10-09T18:58:46.045Z,65.30
2018-10-09T19:01:14.046Z,65.48
2018-10-09T19:03:42.400Z,65.68
2018-10-09T19:06:10.482Z,65.90
2018-10-09T19:08:38.531Z,66.28
2018-10-09T19:11:06.775Z,65.80
2018-10-09T19:13:34.886Z,65.96
2018-10-09T19:16:03.006Z,67.15
2018-10-09T19:18:31.059Z,67.56
2018-10-09T19:20:59.129Z,67.02
2018-10-09T19:23:27.468Z,67.47
2018-10-09T19:25:55.454Z,67.57
2018-10-09T19:28:23.519Z,66.76
2018-10-09T19:30:51.694Z,66.86
2018-10-09T19:33:19.813Z,66.98
2018-10-09T19:35:47.918Z,68.80
2018-10-09T19:38:15.978Z,68.26
2018-10-09T19:40:44.154Z,68.51
2018-10-09T19:43:12.265Z,69.25
2018-10-09T19:45:40.418Z,69.30
2018-10-09T19:48:08.758Z,68.52
2018-10-09T19:50:36.843Z,69.36
2018-10-09T19:53:04.890Z,70.16
2018-10-09T19:55:32.950Z,69.93
2018-10-09T19:58:00.993Z,69.05
2018-10-09T20:00:29.109Z,69.38
2018-10-09T20:02:57.318Z,69.86
2018-10-09T20:05:25.625Z,69.59
2018-10-09T20:07:53.810Z,70.04
2018-10-09T20:10:21.792Z,69.15
2018-10-09T20:12:49.815Z,69.87
2018-10-09T20:15:17.902Z,70.68
2018-10-09T20:17:45.958Z,71.00
2018-10-09T20:20:14.037Z,71.74
2018-10-09T20:22:42.183Z,71.18
2018-10-09T20:25:10.309Z,71.75
2018-10-09T20:27:38.496Z,72.09
2018-10-09T20:30:06.559Z,72.29
2018-10-09T20:32:34.617Z,72.11
2018-10-09T20:35:02.914Z,71.42
2018-10-09T20:37:30.945Z,71.92
2018-10-09T20:39:59.029Z,71.50
2018-10-09T20:42:27.094Z,72.93
2018-10-09T20:44:55.134Z,71.71
2018-10-09T20:47:45.057Z,71.86
2018-10-09T20:50:14.011Z,71.50
2018-10-09T20:52:42.146Z,73.03
2018-10-09T20:55:10.529Z,73.51
2018-10-09T20:57:38.645Z,73.93
2018-10-09T21:00:06.741Z,73.12
2018-10-09T21:02:34.984Z,73.53
2018-10-09T21:05:05.173Z,72.53
2018-10-09T21:07:33.217Z,73.11
2018-10-09T21:10:01.720Z,73.69
2018-10-09T21:12:30.034Z,73.56
2018-10-09T21:14:58.085Z,72.87
2018-10-09T21:17:26.209Z,73.25
2018-10-09T21:19:54.257Z,73.22
2018-10-09T21:22:22.345Z,72.59
2018-10-09T21:24:50.373Z,72.10
2018-10-09T21:27:18.378Z,72.33
2018-10-09T21:29:46.556Z,72.83
2018-10-09T21:32:14.579Z,73.70
2018-10-09T21:34:42.913Z,73.03
2018-10-09T21:37:11.118Z,72.67
2018-10-09T21:39:39.405Z,72.24
2018-10-09T21:42:07.435Z,71.20
2018-10-09T21:44:35.506Z,71.87
2018-10-09T21:47:03.625Z,71.10
2018-10-09T21:49:31.755Z,71.26
2018-10-09T21:51:59.881Z,72.28
2018-10-09T21:54:27.922Z,72.12
2018-10-09T21:56:56.039Z,71.80
2018-10-09T21:59:24.108Z,71.77
2018-10-09T22:01:52.221Z,71.96
2018-10-09T22:04:20.406Z,72.15
2018-10-09T22:06:49.548Z,73.14
2018-10-09T22:09:17.641Z,72.76
2018-10-09T22:11:45.823Z,73.31
2018-10-09T22:14:13.947Z,72.62
2018-10-09T22:16:42.014Z,73.52
2018-10-09T22:19:10.230Z,73.71
2018-10-09T22:21:38.414Z,73.86
2018-10-09T22:24:06.502Z,74.17
2018-10-09T22:26:34.644Z,74.31
2018-10-09T22:29:02.787Z,74.19
2018-10-09T22:31:31.155Z,74.83
2018-10-09T22:33:59.247Z,74.65
2018-10-09T22:36:27.398Z,75.69
2018-10-09T22:38:55.522Z,74.79
2018-10-09T22:41:23.570Z,75.09
2018-10-09T22:43:51.713Z,74.99
2018-10-09T22:46:19.838Z,75.05
2018-10-09T22:48:47.999Z,74.54
2018-10-09T22:51:16.029Z,74.37
2018-10-09T22:53:44.090Z,73.42
2018-10-09T22:56:12.165Z,74.35
2018-10-09T22:58:40.302Z,73.93
2018-10-09T23:01:08.556Z,74.33
2018-10-09T23:03:36.703Z,73.23
2018-10-09T23:06:04.801Z,73.71
2018-10-09T23:08:32.968Z,73.48
2018-10-09T23:11:01.170Z,73.02
2018-10-09T23:13:29.312Z,74.83
2018-10-09T23:15:57.358Z,74.52
2018-10-09T23:18:25.504Z,75.39
2018-10-09T23:20:53.662Z,75.56
2018-10-09T23:23:21.681Z,74.90
2018-10-09T23:25:49.772Z,74.44
2018-10-09T23:28:17.803Z,74.04
2018-10-09T23:30:45.911Z,74.22
2018-10-09T23:33:13.960Z,73.71
2018-10-09T23:35:42.201Z,74.03
2018-10-09T23:38:10.254Z,73.89
2018-10-09T23:40:38.286Z,74.13
2018-10-09T23:43:06.383Z,73.72
2018-10-09T23:45:34.633Z,73.49
2018-10-09T23:48:02.641Z,72.71
2018-10-09T23:50:30.670Z,73.47
2018-10-09T23:52:58.782Z,73.68
2018-10-09T23:55:26.793Z,74.13
2018-10-09T23:57:54.834Z,73.13
